sensor_id;sensor_type;location;lat;lon;timestamp;P1;durP1;ratioP1;P2;durP2;ratioP2
16845;SDS011;8539;53.188;8.696;2023-07-31T00:02:24;7.88;;;3.13;;
16845;SDS011;8539;53.188;8.696;2023-07-31T00:04:51;6.70;;;2.90;;
16845;SDS011;8539;53.188;8.696;2023-07-31T00:07:18;298.88;;;25.67;;
16845;SDS011;8539;53.188;8.696;2023-07-31T00:09:45;9.68;;;4.05;;
16845;SDS011;8539;53.188;8.696;2023-07-31T00:12:12;4.85;;;2.63;;
16845;SDS011;8539;53.188;8.696;2023-07-31T00:14:38;7.78;;;3.40;;
16845;SDS011;8539;53.188;8.696;2023-07-31T00:17:04;9.98;;;2.97;;
16845;SDS011;8539;53.188;8.696;2023-07-31T00:19:30;4.60;;;2.85;;
16845;SDS011;8539;53.188;8.696;2023-07-31T00:21:59;10.38;;;3.28;;
16845;SDS011;8539;53.188;8.696;2023-07-31T00:24:30;8.65;;;3.42;;
16845;SDS011;8539;53.188;8.696;2023-07-31T00:26:56;4.57;;;2.67;;
16845;SDS011;8539;53.188;8.696;2023-07-31T00:29:22;8.88;;;3.20;;
16845;SDS011;8539;53.188;8.696;2023-07-31T00:31:49;5.18;;;2.90;;
16845;SDS011;8539;53.188;8.696;2023-07-31T00:34:16;10.70;;;2.90;;
16845;SDS011;8539;53.188;8.696;2023-07-31T00:36:42;10.85;;;3.72;;
16845;SDS011;8539;53.188;8.696;2023-07-31T00:39:08;6.13;;;2.80;;
16845;SDS011;8539;53.188;8.696;2023-07-31T00:41:34;8.45;;;2.75;;
16845;SDS011;8539;53.188;8.696;2023-07-31T00:44:00;3.92;;;2.33;;
16845;SDS011;8539;53.188;8.696;2023-07-31T00:46:26;3.50;;;2.90;;
16845;SDS011;8539;53.188;8.696;2023-07-31T00:48:52;5.32;;;2.97;;
16845;SDS011;8539;53.188;8.696;2023-07-31T00:51:18;5.30;;;2.65;;
16845;SDS011;8539;53.188;8.696;2023-07-31T00:53:44;11.90;;;3.63;;
16845;SDS011;8539;53.188;8.696;2023-07-31T00:56:12;4.38;;;2.75;;
16845;SDS011;8539;53.188;8.696;2023-07-31T00:58:38;5.13;;;2.22;;
16845;SDS011;8539;53.188;8.696;2023-07-31T01:01:05;166.02;;;15.73;;
16845;SDS011;8539;53.188;8.696;2023-07-31T01:03:31;7.25;;;2.40;;
16845;SDS011;8539;53.188;8.696;2023-07-31T01:09:07;5.22;;;2.60;;
16845;SDS011;8539;53.188;8.696;2023-07-31T01:11:56;3.65;;;2.53;;
16845;SDS011;8539;53.188;8.696;2023-07-31T01:14:25;2.95;;;2.25;;
16845;SDS011;8539;53.188;8.696;2023-07-31T01:16:51;2.53;;;2.20;;
16845;SDS011;8539;53.188;8.696;2023-07-31T01:19:17;3.63;;;1.92;;
16845;SDS011;8539;53.188;8.696;2023-07-31T01:27:59;7.18;;;2.40;;
16845;SDS011;8539;53.188;8.696;2023-07-31T01:30:32;6.13;;;2.30;;
16845;SDS011;8539;53.188;8.696;2023-07-31T01:33:01;2.60;;;2.25;;
16845;SDS011;8539;53.188;8.696;2023-07-31T01:35:33;9.02;;;2.60;;
16845;SDS011;8539;53.188;8.696;2023-07-31T01:37:59;4.28;;;2.00;;
16845;SDS011;8539;53.188;8.696;2023-07-31T01:40:26;4.13;;;2.20;;
16845;SDS011;8539;53.188;8.696;2023-07-31T01:42:52;2.75;;;1.90;;
16845;SDS011;8539;53.188;8.696;2023-07-31T01:45:18;4.32;;;1.92;;
16845;SDS011;8539;53.188;8.696;2023-07-31T01:47:44;2.33;;;1.98;;
16845;SDS011;8539;53.188;8.696;2023-07-31T01:50:10;3.78;;;1.65;;
16845;SDS011;8539;53.188;8.696;2023-07-31T01:52:36;8.75;;;2.42;;
16845;SDS011;8539;53.188;8.696;2023-07-31T01:55:03;8.48;;;2.53;;
16845;SDS011;8539;53.188;8.696;2023-07-31T01:57:29;3.85;;;1.90;;
16845;SDS011;8539;53.188;8.696;2023-07-31T01:59:55;2.45;;;1.45;;
16845;SDS011;8539;53.188;8.696;2023-07-31T02:02:22;2.80;;;2.22;;
16845;SDS011;8539;53.188;8.696;2023-07-31T02:04:51;5.10;;;2.10;;
16845;SDS011;8539;53.188;8.696;2023-07-31T02:07:17;2.67;;;1.90;;
16845;SDS011;8539;53.188;8.696;2023-07-31T02:09:43;60.90;;;7.50;;
16845;SDS011;8539;53.188;8.696;2023-07-31T02:12:10;4.55;;;2.20;;
16845;SDS011;8539;53.188;8.696;2023-07-31T02:14:37;5.07;;;2.10;;
16845;SDS011;8539;53.188;8.696;2023-07-31T02:17:03;7.00;;;2.28;;
16845;SDS011;8539;53.188;8.696;2023-07-31T02:19:29;7.30;;;2.70;;
16845;SDS011;8539;53.188;8.696;2023-07-31T02:21:56;4.40;;;2.10;;
16845;SDS011;8539;53.188;8.696;2023-07-31T02:24:22;3.85;;;2.78;;
16845;SDS011;8539;53.188;8.696;2023-07-31T02:26:48;3.92;;;2.50;;
16845;SDS011;8539;53.188;8.696;2023-07-31T02:29:14;3.67;;;2.03;;
16845;SDS011;8539;53.188;8.696;2023-07-31T02:31:40;4.40;;;2.25;;
16845;SDS011;8539;53.188;8.696;2023-07-31T02:34:06;2.40;;;1.90;;
16845;SDS011;8539;53.188;8.696;2023-07-31T02:36:32;3.70;;;1.98;;
16845;SDS011;8539;53.188;8.696;2023-07-31T02:38:59;2.50;;;2.13;;
16845;SDS011;8539;53.188;8.696;2023-07-31T02:41:25;6.05;;;3.08;;
16845;SDS011;8539;53.188;8.696;2023-07-31T02:43:51;2.95;;;2.17;;
16845;SDS011;8539;53.188;8.696;2023-07-31T02:46:17;2.78;;;2.00;;
16845;SDS011;8539;53.188;8.696;2023-07-31T02:48:44;4.20;;;2.40;;
16845;SDS011;8539;53.188;8.696;2023-07-31T02:51:11;3.13;;;2.30;;
16845;SDS011;8539;53.188;8.696;2023-07-31T02:53:37;5.00;;;2.08;;
16845;SDS011;8539;53.188;8.696;2023-07-31T02:56:03;4.95;;;2.22;;
16845;SDS011;8539;53.188;8.696;2023-07-31T02:58:29;4.65;;;2.40;;
16845;SDS011;8539;53.188;8.696;2023-07-31T03:00:55;3.17;;;2.20;;
16845;SDS011;8539;53.188;8.696;2023-07-31T03:03:24;4.25;;;3.13;;
16845;SDS011;8539;53.188;8.696;2023-07-31T03:05:50;2.40;;;2.10;;
16845;SDS011;8539;53.188;8.696;2023-07-31T03:08:16;3.78;;;2.30;;
16845;SDS011;8539;53.188;8.696;2023-07-31T03:10:42;7.28;;;2.22;;
16845;SDS011;8539;53.188;8.696;2023-07-31T03:13:08;4.10;;;2.55;;
16845;SDS011;8539;53.188;8.696;2023-07-31T03:15:34;4.22;;;2.65;;
16845;SDS011;8539;53.188;8.696;2023-07-31T03:18:00;4.93;;;2.38;;
16845;SDS011;8539;53.188;8.696;2023-07-31T03:20:26;5.47;;;2.15;;
16845;SDS011;8539;53.188;8.696;2023-07-31T03:22:52;4.38;;;2.78;;
16845;SDS011;8539;53.188;8.696;2023-07-31T03:25:18;4.28;;;2.58;;
16845;SDS011;8539;53.188;8.696;2023-07-31T03:27:44;4.65;;;2.90;;
16845;SDS011;8539;53.188;8.696;2023-07-31T03:30:10;3.70;;;2.33;;
16845;SDS011;8539;53.188;8.696;2023-07-31T03:32:36;80.25;;;7.30;;
16845;SDS011;8539;53.188;8.696;2023-07-31T03:35:02;5.88;;;2.90;;
16845;SDS011;8539;53.188;8.696;2023-07-31T03:37:31;5.25;;;2.95;;
16845;SDS011;8539;53.188;8.696;2023-07-31T03:39:57;4.53;;;2.85;;
16845;SDS011;8539;53.188;8.696;2023-07-31T03:42:23;5.30;;;3.15;;
16845;SDS011;8539;53.188;8.696;2023-07-31T03:44:49;4.40;;;3.38;;
16845;SDS011;8539;53.188;8.696;2023-07-31T03:47:15;5.03;;;3.10;;
16845;SDS011;8539;53.188;8.696;2023-07-31T03:49:41;3.42;;;3.08;;
16845;SDS011;8539;53.188;8.696;2023-07-31T03:52:07;3.38;;;3.03;;
16845;SDS011;8539;53.188;8.696;2023-07-31T03:54:33;5.07;;;3.33;;
16845;SDS011;8539;53.188;8.696;2023-07-31T03:56:59;5.63;;;3.13;;
16845;SDS011;8539;53.188;8.696;2023-07-31T03:59:25;5.22;;;4.32;;
16845;SDS011;8539;53.188;8.696;2023-07-31T04:01:51;5.38;;;3.08;;
16845;SDS011;8539;53.188;8.696;2023-07-31T04:04:17;3.97;;;3.00;;
16845;SDS011;8539;53.188;8.696;2023-07-31T04:06:44;4.18;;;3.05;;
16845;SDS011;8539;53.188;8.696;2023-07-31T04:09:10;3.63;;;3.13;;
16845;SDS011;8539;53.188;8.696;2023-07-31T04:11:36;22.63;;;3.97;;
16845;SDS011;8539;53.188;8.696;2023-07-31T04:14:04;3.65;;;3.30;;
16845;SDS011;8539;53.188;8.696;2023-07-31T04:16:30;3.50;;;3.20;;
16845;SDS011;8539;53.188;8.696;2023-07-31T04:18:56;5.82;;;3.65;;
16845;SDS011;8539;53.188;8.696;2023-07-31T04:21:22;5.93;;;3.08;;
16845;SDS011;8539;53.188;8.696;2023-07-31T04:23:48;4.10;;;3.70;;
16845;SDS011;8539;53.188;8.696;2023-07-31T04:26:14;4.15;;;3.58;;
16845;SDS011;8539;53.188;8.696;2023-07-31T04:28:40;5.47;;;3.63;;
16845;SDS011;8539;53.188;8.696;2023-07-31T04:31:06;4.03;;;3.60;;
16845;SDS011;8539;53.188;8.696;2023-07-31T04:33:33;4.28;;;3.83;;
16845;SDS011;8539;53.188;8.696;2023-07-31T04:35:59;6.63;;;4.00;;
16845;SDS011;8539;53.188;8.696;2023-07-31T04:38:25;4.15;;;3.75;;
16845;SDS011;8539;53.188;8.696;2023-07-31T04:40:51;8.10;;;4.18;;
16845;SDS011;8539;53.188;8.696;2023-07-31T04:43:17;3.75;;;3.33;;
16845;SDS011;8539;53.188;8.696;2023-07-31T04:45:46;4.30;;;3.75;;
16845;SDS011;8539;53.188;8.696;2023-07-31T04:48:13;4.68;;;3.33;;
16845;SDS011;8539;53.188;8.696;2023-07-31T04:50:39;4.05;;;3.65;;
16845;SDS011;8539;53.188;8.696;2023-07-31T04:53:05;3.47;;;3.17;;
16845;SDS011;8539;53.188;8.696;2023-07-31T04:55:32;3.83;;;3.30;;
16845;SDS011;8539;53.188;8.696;2023-07-31T04:57:59;4.32;;;3.65;;
16845;SDS011;8539;53.188;8.696;2023-07-31T05:00:25;4.65;;;3.47;;
16845;SDS011;8539;53.188;8.696;2023-07-31T05:02:52;4.47;;;4.10;;
16845;SDS011;8539;53.188;8.696;2023-07-31T05:05:18;4.18;;;3.65;;
16845;SDS011;8539;53.188;8.696;2023-07-31T05:07:46;3.80;;;3.38;;
16845;SDS011;8539;53.188;8.696;2023-07-31T05:10:12;6.00;;;3.25;;
16845;SDS011;8539;53.188;8.696;2023-07-31T05:12:38;3.58;;;3.22;;
16845;SDS011;8539;53.188;8.696;2023-07-31T05:15:04;3.33;;;3.03;;
16845;SDS011;8539;53.188;8.696;2023-07-31T05:17:30;3.20;;;2.90;;
16845;SDS011;8539;53.188;8.696;2023-07-31T05:19:57;4.70;;;3.45;;
16845;SDS011;8539;53.188;8.696;2023-07-31T05:22:23;3.00;;;2.70;;
16845;SDS011;8539;53.188;8.696;2023-07-31T05:24:49;3.20;;;2.53;;
16845;SDS011;8539;53.188;8.696;2023-07-31T05:27:15;3.03;;;2.53;;
16845;SDS011;8539;53.188;8.696;2023-07-31T05:29:44;3.30;;;2.30;;
16845;SDS011;8539;53.188;8.696;2023-07-31T05:32:10;3.00;;;2.70;;
16845;SDS011;8539;53.188;8.696;2023-07-31T05:34:37;2.55;;;2.35;;
16845;SDS011;8539;53.188;8.696;2023-07-31T05:37:03;2.47;;;2.25;;
16845;SDS011;8539;53.188;8.696;2023-07-31T05:39:30;2.75;;;2.22;;
16845;SDS011;8539;53.188;8.696;2023-07-31T05:41:56;2.15;;;1.95;;
16845;SDS011;8539;53.188;8.696;2023-07-31T05:44:22;2.00;;;1.73;;
16845;SDS011;8539;53.188;8.696;2023-07-31T05:46:48;1.95;;;1.85;;
16845;SDS011;8539;53.188;8.696;2023-07-31T05:49:14;1.65;;;1.55;;
16845;SDS011;8539;53.188;8.696;2023-07-31T05:51:40;2.47;;;1.70;;
16845;SDS011;8539;53.188;8.696;2023-07-31T05:54:06;1.60;;;1.50;;
16845;SDS011;8539;53.188;8.696;2023-07-31T05:56:32;2.15;;;1.95;;
16845;SDS011;8539;53.188;8.696;2023-07-31T05:58:59;1.67;;;1.58;;
16845;SDS011;8539;53.188;8.696;2023-07-31T06:01:25;1.67;;;1.23;;
16845;SDS011;8539;53.188;8.696;2023-07-31T06:03:51;1.67;;;1.52;;
16845;SDS011;8539;53.188;8.696;2023-07-31T06:06:18;2.85;;;1.88;;
16845;SDS011;8539;53.188;8.696;2023-07-31T06:08:44;2.10;;;1.90;;
16845;SDS011;8539;53.188;8.696;2023-07-31T06:11:10;2.63;;;2.15;;
16845;SDS011;8539;53.188;8.696;2023-07-31T06:13:36;2.55;;;1.85;;
16845;SDS011;8539;53.188;8.696;2023-07-31T06:16:02;2.00;;;1.80;;
16845;SDS011;8539;53.188;8.696;2023-07-31T06:18:31;1.70;;;1.48;;
16845;SDS011;8539;53.188;8.696;2023-07-31T06:20:58;2.17;;;1.98;;
16845;SDS011;8539;53.188;8.696;2023-07-31T06:23:24;1.85;;;1.70;;
16845;SDS011;8539;53.188;8.696;2023-07-31T06:25:50;2.65;;;1.92;;
16845;SDS011;8539;53.188;8.696;2023-07-31T06:28:16;2.00;;;1.90;;
16845;SDS011;8539;53.188;8.696;2023-07-31T06:30:42;5.20;;;2.22;;
16845;SDS011;8539;53.188;8.696;2023-07-31T06:33:11;2.53;;;1.90;;
16845;SDS011;8539;53.188;8.696;2023-07-31T06:35:37;2.08;;;1.90;;
16845;SDS011;8539;53.188;8.696;2023-07-31T06:38:03;2.10;;;1.83;;
16845;SDS011;8539;53.188;8.696;2023-07-31T06:40:30;3.35;;;1.60;;
16845;SDS011;8539;53.188;8.696;2023-07-31T06:42:56;3.05;;;1.77;;
16845;SDS011;8539;53.188;8.696;2023-07-31T06:45:22;2.20;;;2.00;;
16845;SDS011;8539;53.188;8.696;2023-07-31T06:47:51;5.47;;;2.05;;
16845;SDS011;8539;53.188;8.696;2023-07-31T06:50:20;2.88;;;2.38;;
16845;SDS011;8539;53.188;8.696;2023-07-31T06:52:46;3.28;;;1.80;;
16845;SDS011;8539;53.188;8.696;2023-07-31T06:55:16;2.28;;;2.08;;
16845;SDS011;8539;53.188;8.696;2023-07-31T06:57:44;2.25;;;1.67;;
16845;SDS011;8539;53.188;8.696;2023-07-31T07:00:11;2.15;;;1.95;;
16845;SDS011;8539;53.188;8.696;2023-07-31T07:02:41;1.70;;;1.60;;
16845;SDS011;8539;53.188;8.696;2023-07-31T07:05:07;1.73;;;1.63;;
16845;SDS011;8539;53.188;8.696;2023-07-31T07:07:34;1.20;;;1.10;;
16845;SDS011;8539;53.188;8.696;2023-07-31T07:10:00;1.73;;;1.63;;
16845;SDS011;8539;53.188;8.696;2023-07-31T07:12:28;2.78;;;1.38;;
16845;SDS011;8539;53.188;8.696;2023-07-31T07:14:55;2.35;;;2.15;;
16845;SDS011;8539;53.188;8.696;2023-07-31T07:17:23;1.48;;;1.30;;
16845;SDS011;8539;53.188;8.696;2023-07-31T07:19:49;2.40;;;2.20;;
16845;SDS011;8539;53.188;8.696;2023-07-31T07:22:16;1.80;;;1.70;;
16845;SDS011;8539;53.188;8.696;2023-07-31T07:24:42;2.28;;;2.10;;
16845;SDS011;8539;53.188;8.696;2023-07-31T07:27:08;1.75;;;1.65;;
16845;SDS011;8539;53.188;8.696;2023-07-31T07:29:34;2.17;;;1.98;;
16845;SDS011;8539;53.188;8.696;2023-07-31T07:32:00;1.77;;;1.67;;
16845;SDS011;8539;53.188;8.696;2023-07-31T07:34:27;1.73;;;1.63;;
16845;SDS011;8539;53.188;8.696;2023-07-31T07:36:54;1.75;;;1.65;;
16845;SDS011;8539;53.188;8.696;2023-07-31T07:39:20;1.90;;;1.75;;
16845;SDS011;8539;53.188;8.696;2023-07-31T07:41:47;2.00;;;1.90;;
16845;SDS011;8539;53.188;8.696;2023-07-31T07:44:14;1.60;;;1.50;;
16845;SDS011;8539;53.188;8.696;2023-07-31T07:46:40;2.15;;;1.95;;
16845;SDS011;8539;53.188;8.696;2023-07-31T07:49:06;2.17;;;1.98;;
16845;SDS011;8539;53.188;8.696;2023-07-31T07:51:32;2.33;;;2.13;;
16845;SDS011;8539;53.188;8.696;2023-07-31T07:53:59;2.65;;;2.03;;
16845;SDS011;8539;53.188;8.696;2023-07-31T07:56:26;4.55;;;3.47;;
16845;SDS011;8539;53.188;8.696;2023-07-31T07:58:53;4.45;;;3.92;;
16845;SDS011;8539;53.188;8.696;2023-07-31T08:01:20;6.78;;;4.97;;
16845;SDS011;8539;53.188;8.696;2023-07-31T08:03:46;6.63;;;4.85;;
16845;SDS011;8539;53.188;8.696;2023-07-31T08:06:13;8.20;;;5.70;;
16845;SDS011;8539;53.188;8.696;2023-07-31T08:08:39;19.02;;;7.80;;
16845;SDS011;8539;53.188;8.696;2023-07-31T08:11:06;9.52;;;8.00;;
16845;SDS011;8539;53.188;8.696;2023-07-31T08:13:32;22.73;;;8.32;;
16845;SDS011;8539;53.188;8.696;2023-07-31T08:15:58;14.60;;;7.68;;
16845;SDS011;8539;53.188;8.696;2023-07-31T08:18:24;12.48;;;9.10;;
16845;SDS011;8539;53.188;8.696;2023-07-31T08:20:50;15.57;;;9.50;;
16845;SDS011;8539;53.188;8.696;2023-07-31T08:23:16;18.98;;;11.10;;
16845;SDS011;8539;53.188;8.696;2023-07-31T08:25:42;21.10;;;10.63;;
16845;SDS011;8539;53.188;8.696;2023-07-31T08:28:09;24.35;;;11.10;;
16845;SDS011;8539;53.188;8.696;2023-07-31T08:30:35;16.92;;;10.25;;
16845;SDS011;8539;53.188;8.696;2023-07-31T08:33:01;24.25;;;11.52;;
16845;SDS011;8539;53.188;8.696;2023-07-31T08:35:27;28.77;;;12.57;;
16845;SDS011;8539;53.188;8.696;2023-07-31T08:37:56;28.95;;;13.93;;
16845;SDS011;8539;53.188;8.696;2023-07-31T08:40:22;24.80;;;13.45;;
16845;SDS011;8539;53.188;8.696;2023-07-31T08:42:53;27.52;;;13.55;;
16845;SDS011;8539;53.188;8.696;2023-07-31T08:45:22;24.23;;;13.65;;
16845;SDS011;8539;53.188;8.696;2023-07-31T08:47:49;29.50;;;14.32;;
16845;SDS011;8539;53.188;8.696;2023-07-31T08:50:17;24.23;;;13.38;;
16845;SDS011;8539;53.188;8.696;2023-07-31T08:52:46;28.35;;;15.15;;
16845;SDS011;8539;53.188;8.696;2023-07-31T08:55:13;23.42;;;13.38;;
16845;SDS011;8539;53.188;8.696;2023-07-31T08:57:39;27.95;;;14.40;;
16845;SDS011;8539;53.188;8.696;2023-07-31T09:00:08;24.40;;;12.27;;
16845;SDS011;8539;53.188;8.696;2023-07-31T09:05:14;27.35;;;13.95;;
16845;SDS011;8539;53.188;8.696;2023-07-31T09:07:43;22.45;;;12.13;;
16845;SDS011;8539;53.188;8.696;2023-07-31T09:10:13;21.50;;;11.10;;
16845;SDS011;8539;53.188;8.696;2023-07-31T09:12:40;21.52;;;11.65;;
16845;SDS011;8539;53.188;8.696;2023-07-31T09:15:08;22.88;;;13.02;;
16845;SDS011;8539;53.188;8.696;2023-07-31T09:21:53;23.50;;;10.98;;
16845;SDS011;8539;53.188;8.696;2023-07-31T09:24:33;21.63;;;10.73;;
16845;SDS011;8539;53.188;8.696;2023-07-31T09:27:07;20.58;;;9.80;;
16845;SDS011;8539;53.188;8.696;2023-07-31T09:29:59;15.07;;;8.77;;
16845;SDS011;8539;53.188;8.696;2023-07-31T09:32:46;17.30;;;9.68;;
16845;SDS011;8539;53.188;8.696;2023-07-31T09:35:16;13.57;;;8.93;;
16845;SDS011;8539;53.188;8.696;2023-07-31T09:38:03;12.45;;;9.93;;
16845;SDS011;8539;53.188;8.696;2023-07-31T09:40:32;11.57;;;8.35;;
16845;SDS011;8539;53.188;8.696;2023-07-31T09:43:00;15.63;;;7.88;;
16845;SDS011;8539;53.188;8.696;2023-07-31T09:45:30;15.52;;;7.82;;
16845;SDS011;8539;53.188;8.696;2023-07-31T09:48:17;14.57;;;8.68;;
16845;SDS011;8539;53.188;8.696;2023-07-31T09:50:45;15.40;;;8.23;;
16845;SDS011;8539;53.188;8.696;2023-07-31T09:53:12;11.30;;;7.55;;
16845;SDS011;8539;53.188;8.696;2023-07-31T09:55:42;16.63;;;8.27;;
16845;SDS011;8539;53.188;8.696;2023-07-31T09:58:12;15.20;;;7.20;;
16845;SDS011;8539;53.188;8.696;2023-07-31T10:00:41;11.70;;;7.15;;
16845;SDS011;8539;53.188;8.696;2023-07-31T10:03:08;12.48;;;6.85;;
16845;SDS011;8539;53.188;8.696;2023-07-31T10:05:36;11.93;;;6.05;;
16845;SDS011;8539;53.188;8.696;2023-07-31T10:08:05;16.52;;;8.15;;
16845;SDS011;8539;53.188;8.696;2023-07-31T10:10:35;11.88;;;6.00;;
16845;SDS011;8539;53.188;8.696;2023-07-31T10:13:05;13.05;;;5.57;;
16845;SDS011;8539;53.188;8.696;2023-07-31T10:15:31;10.57;;;5.35;;
16845;SDS011;8539;53.188;8.696;2023-07-31T10:17:58;11.20;;;5.20;;
16845;SDS011;8539;53.188;8.696;2023-07-31T10:20:25;8.50;;;6.20;;
16845;SDS011;8539;53.188;8.696;2023-07-31T10:22:53;12.02;;;6.07;;
16845;SDS011;8539;53.188;8.696;2023-07-31T10:25:21;7.32;;;4.57;;
16845;SDS011;8539;53.188;8.696;2023-07-31T10:27:47;5.80;;;3.95;;
16845;SDS011;8539;53.188;8.696;2023-07-31T10:30:27;6.40;;;4.15;;
16845;SDS011;8539;53.188;8.696;2023-07-31T10:32:56;5.15;;;4.07;;
16845;SDS011;8539;53.188;8.696;2023-07-31T10:35:23;10.75;;;4.45;;
16845;SDS011;8539;53.188;8.696;2023-07-31T10:37:49;6.60;;;4.40;;
16845;SDS011;8539;53.188;8.696;2023-07-31T10:40:16;7.15;;;3.85;;
16845;SDS011;8539;53.188;8.696;2023-07-31T10:42:55;6.85;;;3.60;;
16845;SDS011;8539;53.188;8.696;2023-07-31T10:47:58;6.13;;;3.97;;
16845;SDS011;8539;53.188;8.696;2023-07-31T10:50:26;6.60;;;3.40;;
16845;SDS011;8539;53.188;8.696;2023-07-31T10:52:54;4.85;;;3.42;;
16845;SDS011;8539;53.188;8.696;2023-07-31T10:55:25;6.28;;;2.65;;
16845;SDS011;8539;53.188;8.696;2023-07-31T10:58:11;2.45;;;2.20;;
16845;SDS011;8539;53.188;8.696;2023-07-31T11:00:41;3.92;;;2.40;;
16845;SDS011;8539;53.188;8.696;2023-07-31T11:03:09;4.03;;;2.67;;
16845;SDS011;8539;53.188;8.696;2023-07-31T11:08:55;2.75;;;2.10;;
16845;SDS011;8539;53.188;8.696;2023-07-31T11:11:21;3.17;;;1.77;;
16845;SDS011;8539;53.188;8.696;2023-07-31T11:13:48;3.25;;;2.70;;
16845;SDS011;8539;53.188;8.696;2023-07-31T11:16:18;2.28;;;2.08;;
16845;SDS011;8539;53.188;8.696;2023-07-31T11:18:49;3.28;;;2.03;;
16845;SDS011;8539;53.188;8.696;2023-07-31T11:22:08;2.33;;;1.80;;
16845;SDS011;8539;53.188;8.696;2023-07-31T11:25:14;2.25;;;1.42;;
16845;SDS011;8539;53.188;8.696;2023-07-31T11:27:40;3.55;;;1.50;;
16845;SDS011;8539;53.188;8.696;2023-07-31T11:30:07;2.13;;;1.15;;
16845;SDS011;8539;53.188;8.696;2023-07-31T11:32:35;2.13;;;1.17;;
16845;SDS011;8539;53.188;8.696;2023-07-31T11:45:21;1.40;;;1.20;;
16845;SDS011;8539;53.188;8.696;2023-07-31T11:47:49;0.70;;;0.70;;
16845;SDS011;8539;53.188;8.696;2023-07-31T11:50:15;1.30;;;1.20;;
16845;SDS011;8539;53.188;8.696;2023-07-31T11:52:42;1.85;;;1.10;;
16845;SDS011;8539;53.188;8.696;2023-07-31T11:55:10;0.85;;;0.80;;
16845;SDS011;8539;53.188;8.696;2023-07-31T11:57:38;1.55;;;1.00;;
16845;SDS011;8539;53.188;8.696;2023-07-31T12:00:07;0.80;;;0.80;;
16845;SDS011;8539;53.188;8.696;2023-07-31T12:02:36;0.63;;;0.63;;
16845;SDS011;8539;53.188;8.696;2023-07-31T12:05:05;1.30;;;0.75;;
16845;SDS011;8539;53.188;8.696;2023-07-31T12:10:25;1.05;;;0.95;;
16845;SDS011;8539;53.188;8.696;2023-07-31T12:12:58;1.65;;;0.60;;
16845;SDS011;8539;53.188;8.696;2023-07-31T12:16:00;0.75;;;0.75;;
16845;SDS011;8539;53.188;8.696;2023-07-31T12:18:20;1.08;;;0.68;;
16845;SDS011;8539;53.188;8.696;2023-07-31T12:20:48;1.02;;;0.95;;
16845;SDS011;8539;53.188;8.696;2023-07-31T12:23:22;0.60;;;0.60;;
16845;SDS011;8539;53.188;8.696;2023-07-31T12:28:28;1.00;;;0.90;;
16845;SDS011;8539;53.188;8.696;2023-07-31T12:30:58;1.30;;;1.20;;
16845;SDS011;8539;53.188;8.696;2023-07-31T12:33:32;0.90;;;0.90;;
16845;SDS011;8539;53.188;8.696;2023-07-31T12:36:00;2.17;;;1.60;;
16845;SDS011;8539;53.188;8.696;2023-07-31T12:38:29;1.58;;;1.48;;
16845;SDS011;8539;53.188;8.696;2023-07-31T12:40:55;1.38;;;1.27;;
16845;SDS011;8539;53.188;8.696;2023-07-31T12:43:22;1.67;;;1.58;;
16845;SDS011;8539;53.188;8.696;2023-07-31T12:45:48;2.65;;;1.70;;
16845;SDS011;8539;53.188;8.696;2023-07-31T12:48:14;1.50;;;1.40;;
16845;SDS011;8539;53.188;8.696;2023-07-31T12:50:40;1.95;;;1.85;;
16845;SDS011;8539;53.188;8.696;2023-07-31T12:53:06;1.85;;;1.75;;
16845;SDS011;8539;53.188;8.696;2023-07-31T12:55:32;3.85;;;2.45;;
16845;SDS011;8539;53.188;8.696;2023-07-31T12:58:00;3.85;;;2.47;;
16845;SDS011;8539;53.188;8.696;2023-07-31T13:00:26;3.45;;;2.50;;
16845;SDS011;8539;53.188;8.696;2023-07-31T13:02:52;3.58;;;2.53;;
16845;SDS011;8539;53.188;8.696;2023-07-31T13:05:18;2.80;;;2.60;;
16845;SDS011;8539;53.188;8.696;2023-07-31T13:07:47;2.65;;;2.45;;
16845;SDS011;8539;53.188;8.696;2023-07-31T13:10:14;2.65;;;2.45;;
16845;SDS011;8539;53.188;8.696;2023-07-31T13:12:40;2.60;;;2.40;;
16845;SDS011;8539;53.188;8.696;2023-07-31T13:15:06;3.92;;;2.50;;
16845;SDS011;8539;53.188;8.696;2023-07-31T13:17:33;2.50;;;2.30;;
16845;SDS011;8539;53.188;8.696;2023-07-31T13:19:59;2.45;;;2.25;;
16845;SDS011;8539;53.188;8.696;2023-07-31T13:22:25;2.95;;;2.42;;
16845;SDS011;8539;53.188;8.696;2023-07-31T13:24:52;2.55;;;2.35;;
16845;SDS011;8539;53.188;8.696;2023-07-31T13:27:18;2.50;;;2.30;;
16845;SDS011;8539;53.188;8.696;2023-07-31T13:29:47;4.15;;;2.85;;
16845;SDS011;8539;53.188;8.696;2023-07-31T13:32:15;3.00;;;2.75;;
16845;SDS011;8539;53.188;8.696;2023-07-31T13:34:42;3.13;;;2.92;;
16845;SDS011;8539;53.188;8.696;2023-07-31T13:37:08;3.28;;;2.55;;
16845;SDS011;8539;53.188;8.696;2023-07-31T13:39:35;3.15;;;2.95;;
16845;SDS011;8539;53.188;8.696;2023-07-31T13:42:04;3.35;;;3.05;;
16845;SDS011;8539;53.188;8.696;2023-07-31T13:44:34;5.68;;;3.38;;
16845;SDS011;8539;53.188;8.696;2023-07-31T13:47:01;4.18;;;3.50;;
16845;SDS011;8539;53.188;8.696;2023-07-31T13:49:28;4.13;;;3.72;;
16845;SDS011;8539;53.188;8.696;2023-07-31T13:51:55;3.63;;;3.33;;
16845;SDS011;8539;53.188;8.696;2023-07-31T13:54:22;6.55;;;3.70;;
16845;SDS011;8539;53.188;8.696;2023-07-31T13:56:48;4.13;;;3.35;;
16845;SDS011;8539;53.188;8.696;2023-07-31T13:59:14;3.65;;;3.35;;
16845;SDS011;8539;53.188;8.696;2023-07-31T14:01:42;4.93;;;3.95;;
16845;SDS011;8539;53.188;8.696;2023-07-31T14:04:09;4.07;;;3.67;;
16845;SDS011;8539;53.188;8.696;2023-07-31T14:06:36;3.60;;;3.30;;
16845;SDS011;8539;53.188;8.696;2023-07-31T14:09:02;4.32;;;3.92;;
16845;SDS011;8539;53.188;8.696;2023-07-31T14:11:28;4.85;;;4.03;;
16845;SDS011;8539;53.188;8.696;2023-07-31T14:13:56;5.20;;;4.70;;
16845;SDS011;8539;53.188;8.696;2023-07-31T14:16:22;10.10;;;7.15;;
16845;SDS011;8539;53.188;8.696;2023-07-31T14:18:48;7.00;;;5.68;;
16845;SDS011;8539;53.188;8.696;2023-07-31T14:21:15;8.98;;;5.75;;
16845;SDS011;8539;53.188;8.696;2023-07-31T14:23:41;6.70;;;6.00;;
16845;SDS011;8539;53.188;8.696;2023-07-31T14:26:07;6.75;;;6.03;;
16845;SDS011;8539;53.188;8.696;2023-07-31T14:28:33;7.30;;;6.60;;
16845;SDS011;8539;53.188;8.696;2023-07-31T14:31:00;7.82;;;6.28;;
16845;SDS011;8539;53.188;8.696;2023-07-31T14:33:26;8.27;;;6.97;;
16845;SDS011;8539;53.188;8.696;2023-07-31T14:35:52;7.88;;;7.07;;
16845;SDS011;8539;53.188;8.696;2023-07-31T14:38:18;8.10;;;6.85;;
16845;SDS011;8539;53.188;8.696;2023-07-31T14:40:44;8.00;;;7.10;;
16845;SDS011;8539;53.188;8.696;2023-07-31T14:43:11;9.45;;;8.27;;
16845;SDS011;8539;53.188;8.696;2023-07-31T14:45:37;12.68;;;8.40;;
16845;SDS011;8539;53.188;8.696;2023-07-31T14:48:03;15.00;;;8.48;;
16845;SDS011;8539;53.188;8.696;2023-07-31T14:50:29;9.40;;;7.97;;
16845;SDS011;8539;53.188;8.696;2023-07-31T14:52:56;11.27;;;8.73;;
16845;SDS011;8539;53.188;8.696;2023-07-31T14:55:22;10.45;;;8.20;;
16845;SDS011;8539;53.188;8.696;2023-07-31T14:57:48;13.57;;;9.60;;
16845;SDS011;8539;53.188;8.696;2023-07-31T15:00:14;9.43;;;8.43;;
16845;SDS011;8539;53.188;8.696;2023-07-31T15:02:41;8.98;;;8.07;;
16845;SDS011;8539;53.188;8.696;2023-07-31T15:05:07;9.88;;;8.88;;
16845;SDS011;8539;53.188;8.696;2023-07-31T15:07:33;9.10;;;7.35;;
16845;SDS011;8539;53.188;8.696;2023-07-31T15:10:00;10.15;;;6.93;;
16845;SDS011;8539;53.188;8.696;2023-07-31T15:12:27;7.45;;;6.72;;
16845;SDS011;8539;53.188;8.696;2023-07-31T15:14:53;6.32;;;5.78;;
16845;SDS011;8539;53.188;8.696;2023-07-31T15:17:19;7.10;;;6.32;;
16845;SDS011;8539;53.188;8.696;2023-07-31T15:19:46;7.47;;;6.78;;
16845;SDS011;8539;53.188;8.696;2023-07-31T15:22:12;6.60;;;6.00;;
16845;SDS011;8539;53.188;8.696;2023-07-31T15:24:38;8.20;;;6.75;;
16845;SDS011;8539;53.188;8.696;2023-07-31T15:27:04;8.07;;;6.15;;
16845;SDS011;8539;53.188;8.696;2023-07-31T15:29:30;7.20;;;6.22;;
16845;SDS011;8539;53.188;8.696;2023-07-31T15:31:58;7.32;;;6.65;;
16845;SDS011;8539;53.188;8.696;2023-07-31T15:34:24;7.28;;;6.50;;
16845;SDS011;8539;53.188;8.696;2023-07-31T15:36:50;7.95;;;6.82;;
16845;SDS011;8539;53.188;8.696;2023-07-31T15:39:17;7.32;;;6.63;;